»·PEaware :: DUSTY21 KLSV-KLSV

DUSTY21 :: KLSV-KLSV

FLIGHT INFORMATION

Flight Status: Arrived
Operator: Unknown
More flights by this operator :: More flights under this callsign
Pilot: Sean B. (13609)
Aircraft: FAIRCHILD A-10 THUNDERBOLT 2
(A10)
More flights by this aircraft type
Origin: KLSV Nellis AFB
United States
Destination: KLSV Nellis AFB
United States
More flights between these airports :: More routes between these airports
Route: +
File this flight plan on PilotEdge
Remarks:
Altitude:
(Current/Filed)
0ft
Speed:
(Current/Filed)
0kts
Departed: 10-Jan-18 12:42 PM
Arrived: 10-Jan-18 01:39 PM
Distance/Time
Traveled:
1nm/0:56
Distance/Time
To Go:
Arrived

Flight Plot

Page will automatically refresh every two minutes.


Map Options




Map Legend


Flown Route
Filed Route
Departure Airport
Arrival Airport
Navaid (VOR, NDB)
Fix

Horizontal Profiles

Position Reports

Time Latitude Longitude Heading Altitude Ground
Speed
10-Jan-18 12:45 36.222490 -115.039829 311 1848ft 8kts
10-Jan-18 12:46 36.223899 -115.042657 310 1848ft 14kts
10-Jan-18 12:47 36.224369 -115.043253 317 1848ft 0kts
10-Jan-18 12:48 36.226259 -115.042700 40 1849ft 48kts
10-Jan-18 12:49 36.254262 -115.011612 43 2413ft 167kts
10-Jan-18 12:50 36.297541 -115.004076 276 2858ft 242kts
10-Jan-18 12:51 36.310545 -115.082994 280 4808ft 233kts
10-Jan-18 12:52 36.331643 -115.161571 299 6119ft 243kts
10-Jan-18 12:53 36.368413 -115.231308 301 7754ft 243kts
10-Jan-18 12:54 36.406693 -115.300570 306 9342ft 241kts
10-Jan-18 12:55 36.464488 -115.344126 337 10599ft 247kts
10-Jan-18 12:56 36.528709 -115.373098 338 12316ft 236kts
10-Jan-18 12:57 36.592193 -115.370586 20 12398ft 218kts
10-Jan-18 12:58 36.652403 -115.338979 21 12403ft 242kts
10-Jan-18 12:59 36.717051 -115.305585 13 12390ft 252kts
10-Jan-18 13:00 36.786654 -115.284668 11 12422ft 257kts
10-Jan-18 13:01 36.857397 -115.263602 11 12421ft 260kts
10-Jan-18 13:02 36.929299 -115.242925 12 12422ft 268kts
10-Jan-18 13:03 37.003169 -115.220820 11 12421ft 273kts
10-Jan-18 13:04 37.053501 -115.241191 206 12222ft 257kts
10-Jan-18 13:05 36.977452 -115.237902 174 11487ft 271kts
10-Jan-18 13:06 36.908905 -115.252352 240 13408ft 253kts
10-Jan-18 13:07 36.944745 -115.276153 59 12900ft 311kts
10-Jan-18 13:08 36.987119 -115.175702 69 11244ft 323kts
10-Jan-18 13:09 37.018654 -115.117389 221 11466ft 249kts
10-Jan-18 13:10 36.976931 -115.193740 246 10403ft 277kts
10-Jan-18 13:11 36.946800 -115.280307 311 9404ft 234kts
10-Jan-18 13:12 36.987406 -115.300547 118 7405ft 297kts
10-Jan-18 13:13 36.947417 -115.217741 130 8564ft 306kts
10-Jan-18 13:14 36.969955 -115.188855 289 7860ft 302kts
10-Jan-18 13:15 37.034335 -115.212967 289 9482ft 214kts
10-Jan-18 13:16 36.973786 -115.212290 61 5365ft 211kts
10-Jan-18 13:17 36.985782 -115.218621 242 4413ft 264kts
10-Jan-18 13:18 36.936903 -115.214891 150 3612ft 294kts
10-Jan-18 13:19 36.928480 -115.189820 284 5711ft 259kts
10-Jan-18 13:20 36.958620 -115.191030 80 7344ft 152kts
10-Jan-18 13:21 36.967216 -115.129931 76 9611ft 182kts
10-Jan-18 13:22 36.979436 -115.066230 74 12318ft 193kts
10-Jan-18 13:23 36.997446 -114.981903 73 12513ft 291kts
10-Jan-18 13:24 37.019277 -114.880698 74 12511ft 305kts
10-Jan-18 13:25 37.041391 -114.777527 74 12511ft 307kts
10-Jan-18 13:26 37.063458 -114.674444 72 12585ft 303kts
10-Jan-18 13:27 37.086430 -114.573276 76 12660ft 301kts
10-Jan-18 13:28 37.015058 -114.561953 181 12454ft 291kts
10-Jan-18 13:29 36.933264 -114.566602 181 12454ft 293kts
10-Jan-18 13:30 36.854955 -114.571020 180 12454ft 276kts
10-Jan-18 13:31 36.776841 -114.573897 180 12450ft 272kts
10-Jan-18 13:32 36.704598 -114.576518 180 12452ft 259kts
10-Jan-18 13:33 36.639469 -114.593632 220 12514ft 228kts
10-Jan-18 13:34 36.594673 -114.644691 221 12513ft 209kts
10-Jan-18 13:35 36.551843 -114.693369 221 12514ft 204kts
10-Jan-18 13:36 36.511744 -114.738879 221 12512ft 183kts
10-Jan-18 13:37 36.474695 -114.780967 221 12507ft 169kts
10-Jan-18 13:38 36.432773 -114.826862 220 10908ft 280kts
10-Jan-18 13:39 36.375648 -114.885463 220 8518ft 254kts
10-Jan-18 13:40 36.324062 -114.941673 219 6199ft 240kts
10-Jan-18 13:41 36.273642 -114.995558 221 4050ft 259kts
10-Jan-18 13:42 36.249083 -115.040626 38 3100ft 223kts
10-Jan-18 13:43 36.266209 -115.002926 198 2771ft 202kts
10-Jan-18 13:44 36.235870 -115.036939 218 1857ft 82kts
10-Jan-18 13:45 36.227387 -115.047549 311 1850ft 10kts
10-Jan-18 13:46 36.227451 -115.047636 311 1850ft 0kts
10-Jan-18 13:47 36.229124 -115.048740 220 1854ft 2kts
10-Jan-18 13:48 36.229121 -115.048742 221 1854ft 0kts
10-Jan-18 13:49 36.229121 -115.048742 221 1854ft 0kts

Navigation Log

Ident Type
1. KLSV Airport
2. KLSV Airport